^^
Station Historical Data
Daily Summary for October 14, 2017 Units:  English    Metric   Both
« Previous Day
Next Day »
Daily Weekly Monthly Yearly Custom
  High: Low: Average:
Temperature: 59.0 °F 32.4 °F 45.3 °F
Dew Point: 44.1 °F 14.3 °F 28.6 °F
Humidity: 93% 22% 58%
Wind Speed: 31.1mph 0.0mph 7.4mph
Wind Gust: 31.1mph - -
Wind- - SW
Pressure: 30.28 in 29.71 in -
Precipitation: 0.02 in    
Historical Graphs
 
 
Tabular Data for October 14, 2017
Time Temperature Dew Point Pressure Wind Wind Speed Wind Gust Humidity Rainfall Rate (Hourly) solar Conditions
00:02 45.0 °F 39.8 °F 29.78 in Calm     82% 0.00 in WeatherDisplay:10.37 W/m2 CLR
00:07 44.7 °F 39.9 °F 29.78 in Calm     83% 0.00 in WeatherDisplay:10.37 W/m2 CLR
00:12 44.4 °F 39.6 °F 29.78 in Calm     83% 0.00 in WeatherDisplay:10.37 W/m2 CLR
00:17 44.1 °F 39.6 °F 29.78 in Calm     84% 0.00 in WeatherDisplay:10.37 W/m2 CLR
00:22 43.9 °F 39.4 °F 29.78 in Calm     84% 0.00 in WeatherDisplay:10.37 W/m2 CLR
00:27 43.7 °F 39.2 °F 29.78 in Calm     84% 0.00 in WeatherDisplay:10.37 W/m2 CLR
00:32 43.5 °F 39.3 °F 29.77 in Calm     85% 0.00 in WeatherDisplay:10.37 W/m2 CLR
00:37 43.3 °F 39.1 °F 29.78 in Calm     85% 0.00 in WeatherDisplay:10.37 W/m2 CLR
00:42 43.1 °F 39.2 °F 29.78 in Calm     86% 0.00 in WeatherDisplay:10.37 W/m2 CLR
00:47 42.9 °F 39.0 °F 29.78 in Calm     86% 0.00 in WeatherDisplay:10.37 W/m2 CLR
00:52 42.8 °F 38.9 °F 29.78 in Calm     86% 0.00 in WeatherDisplay:10.37 W/m2 CLR
00:57 42.6 °F 38.7 °F 29.78 in Calm     86% 0.00 in WeatherDisplay:10.37 W/m2 CLR
01:02 42.5 °F 38.9 °F 29.77 in Calm     87% 0.00 in WeatherDisplay:10.37 W/m2 CLR
01:07 42.4 °F 38.8 °F 29.77 in Calm     87% 0.00 in WeatherDisplay:10.37 W/m2 CLR
01:12 42.4 °F 38.8 °F 29.76 in Calm     87% 0.00 in WeatherDisplay:10.37 W/m2 CLR
01:17 42.4 °F 38.8 °F 29.76 in Calm     87% 0.00 in WeatherDisplay:10.37 W/m2 CLR
01:22 42.3 °F 39.0 °F 29.76 in Calm     88% 0.00 in WeatherDisplay:10.37 W/m2 CLR
01:27 42.3 °F 39.0 °F 29.75 in Calm     88% 0.00 in WeatherDisplay:10.37 W/m2 CLR
01:32 42.2 °F 38.6 °F 29.76 in Calm     87% 0.00 in WeatherDisplay:10.37 W/m2 CLR
01:37 42.0 °F 38.4 °F 29.76 in Calm     87% 0.00 in WeatherDisplay:10.37 W/m2 CLR
01:42 41.9 °F 38.6 °F 29.75 in Calm     88% 0.00 in WeatherDisplay:10.37 W/m2 CLR
01:47 41.8 °F 38.5 °F 29.76 in Calm     88% 0.00 in WeatherDisplay:10.37 W/m2 CLR
01:52 41.8 °F 38.5 °F 29.75 in NW 1.2 mph   88% 0.00 in WeatherDisplay:10.37 W/m2 CLR
01:57 41.8 °F 38.5 °F 29.76 in Calm     88% 0.00 in WeatherDisplay:10.37 W/m2 CLR
02:02 41.7 °F 38.4 °F 29.76 in Calm     88% 0.00 in WeatherDisplay:10.37 W/m2 CLR
02:07 41.7 °F 38.4 °F 29.76 in Calm     88% 0.00 in WeatherDisplay:10.37 W/m2 CLR
02:12 41.6 °F 38.3 °F 29.75 in Calm     88% 0.00 in WeatherDisplay:10.37 W/m2 CLR
02:18 41.5 °F 38.2 °F 29.75 in Calm     88% 0.00 in WeatherDisplay:10.37 W/m2 CLR
02:23 41.5 °F 38.2 °F 29.75 in Calm     88% 0.00 in WeatherDisplay:10.37 W/m2 CLR
02:28 41.4 °F 38.1 °F 29.75 in Calm     88% 0.00 in WeatherDisplay:10.37 W/m2 CLR
02:33 41.3 °F 38.0 °F 29.74 in Calm     88% 0.00 in WeatherDisplay:10.37 W/m2 CLR
02:38 41.3 °F 38.3 °F 29.74 in Calm     89% 0.00 in WeatherDisplay:10.37 W/m2 CLR
02:43 41.0 °F 37.7 °F 29.74 in West 2.3 mph 2.3 mph 88% 0.00 in WeatherDisplay:10.37 W/m2 CLR
02:48 40.7 °F 37.4 °F 29.74 in West 1.2 mph 1.2 mph 88% 0.00 in WeatherDisplay:10.37 W/m2 CLR
02:53 40.4 °F 36.8 °F 29.73 in Calm     87% 0.00 in WeatherDisplay:10.37 W/m2 CLR
02:58 40.3 °F 37.0 °F 29.74 in West 1.0 mph   88% 0.00 in WeatherDisplay:10.37 W/m2 CLR
03:03 40.2 °F 36.9 °F 29.73 in Calm     88% 0.00 in WeatherDisplay:10.37 W/m2 CLR
03:08 40.2 °F 37.2 °F 29.72 in SE 1.2 mph 1.2 mph 89% 0.00 in WeatherDisplay:10.37 W/m2 CLR
03:13 40.2 °F 37.2 °F 29.71 in WNW 2.3 mph 2.3 mph 89% 0.00 in WeatherDisplay:10.37 W/m2 CLR
03:18 40.3 °F 37.6 °F 29.71 in Calm     90% 0.00 in WeatherDisplay:10.37 W/m2 CLR
03:23 40.2 °F 37.2 °F 29.71 in Calm     89% 0.00 in WeatherDisplay:10.37 W/m2 CLR
03:28 40.1 °F 37.1 °F 29.71 in Calm     89% 0.00 in WeatherDisplay:10.37 W/m2 CLR
03:33 39.8 °F 36.5 °F 29.71 in Calm     88% 0.00 in WeatherDisplay:10.37 W/m2 CLR
03:38 39.7 °F 36.7 °F 29.71 in Calm     89% 0.00 in WeatherDisplay:10.37 W/m2 CLR
03:43 39.6 °F 36.6 °F 29.71 in Calm     89% 0.00 in WeatherDisplay:10.37 W/m2 CLR
03:48 39.4 °F 36.4 °F 29.71 in Calm     89% 0.00 in WeatherDisplay:10.37 W/m2 CLR
03:53 39.3 °F 36.3 °F 29.72 in Calm     89% 0.00 in WeatherDisplay:10.37 W/m2 CLR
03:58 39.2 °F 36.2 °F 29.72 in Calm     89% 0.00 in WeatherDisplay:10.37 W/m2 CLR
04:03 39.1 °F 36.1 °F 29.72 in WNW 1.2 mph   89% 0.00 in WeatherDisplay:10.37 W/m2 CLR
04:08 39.1 °F 36.4 °F 29.72 in Calm     90% 0.00 in WeatherDisplay:10.37 W/m2 CLR
04:13 39.3 °F 36.6 °F 29.72 in Calm     90% 0.00 in WeatherDisplay:10.37 W/m2 CLR
04:18 39.3 °F 36.9 °F 29.72 in WNW 1.2 mph   91% 0.00 in WeatherDisplay:10.37 W/m2 CLR
04:23 39.3 °F 36.6 °F 29.72 in Calm     90% 0.00 in WeatherDisplay:10.37 W/m2 CLR
04:28 39.2 °F 36.5 °F 29.72 in Calm     90% 0.00 in WeatherDisplay:10.37 W/m2 CLR
04:33 39.1 °F 36.4 °F 29.72 in Calm     90% 0.00 in WeatherDisplay:10.37 W/m2 CLR
04:38 38.9 °F 36.2 °F 29.72 in Calm     90% 0.00 in WeatherDisplay:10.37 W/m2 CLR
04:43 38.9 °F 36.2 °F 29.72 in Calm     90% 0.00 in WeatherDisplay:10.37 W/m2 CLR
04:48 38.8 °F 36.1 °F 29.73 in Calm     90% 0.00 in WeatherDisplay:10.37 W/m2 CLR
04:53 38.7 °F 36.0 °F 29.72 in Calm     90% 0.00 in WeatherDisplay:10.37 W/m2 CLR
04:58 38.6 °F 35.9 °F 29.73 in Calm     90% 0.00 in WeatherDisplay:10.37 W/m2 CLR
05:03 38.7 °F 36.3 °F 29.73 in Calm     91% 0.00 in WeatherDisplay:10.37 W/m2 CLR
05:08 38.9 °F 36.5 °F 29.73 in Calm     91% 0.00 in WeatherDisplay:10.37 W/m2 CLR
05:13 39.3 °F 37.2 °F 29.72 in Calm     92% 0.00 in WeatherDisplay:10.37 W/m2 CLR
05:18 39.7 °F 37.6 °F 29.73 in Calm     92% 0.00 in WeatherDisplay:10.37 W/m2 CLR
05:23 40.0 °F 37.9 °F 29.72 in Calm     92% 0.00 in WeatherDisplay:10.37 W/m2 CLR
05:28 40.3 °F 38.2 °F 29.72 in WNW 1.2 mph 1.2 mph 92% 0.00 in WeatherDisplay:10.37 W/m2 CLR
05:33 40.6 °F 38.5 °F 29.72 in Calm     92% 0.00 in WeatherDisplay:10.37 W/m2 CLR
05:38 40.8 °F 38.7 °F 29.72 in NW 1.2 mph   92% 0.00 in WeatherDisplay:10.37 W/m2 CLR
05:43 41.0 °F 38.9 °F 29.71 in Calm     92% 0.00 in WeatherDisplay:10.37 W/m2 CLR
05:48 41.1 °F 39.0 °F 29.71 in Calm     92% 0.00 in WeatherDisplay:10.37 W/m2 CLR
05:53 41.2 °F 39.1 °F 29.72 in Calm     92% 0.00 in WeatherDisplay:10.37 W/m2 CLR
05:58 41.3 °F 39.2 °F 29.72 in NW 2.0 mph 2.0 mph 92% 0.00 in WeatherDisplay:10.37 W/m2 CLR
06:03 41.6 °F 39.4 °F 29.74 in NNW 1.2 mph 1.2 mph 92% 0.00 in WeatherDisplay:10.37 W/m2 CLR
06:08 41.7 °F 39.5 °F 29.73 in Calm     92% 0.00 in WeatherDisplay:10.37 W/m2 CLR
06:13 42.0 °F 39.8 °F 29.73 in Calm     92% 0.00 in WeatherDisplay:10.37 W/m2 CLR
06:18 42.2 °F 40.3 °F 29.74 in NNW 1.2 mph 1.2 mph 93% 0.00 in WeatherDisplay:10.37 W/m2 CLR
06:23 42.4 °F 40.2 °F 29.74 in NNW 3.5 mph 4.3 mph 92% 0.00 in WeatherDisplay:10.37 W/m2 CLR
06:28 42.4 °F 40.2 °F 29.74 in NNW 3.0 mph 3.0 mph 92% 0.00 in WeatherDisplay:10.37 W/m2 CLR
06:33 42.5 °F 40.3 °F 29.74 in North 2.3 mph   92% 0.00 in WeatherDisplay:10.37 W/m2 CLR
06:38 42.5 °F 40.3 °F 29.75 in Calm     92% 0.00 in WeatherDisplay:10.37 W/m2 CLR
06:43 42.6 °F 40.4 °F 29.75 in Calm     92% 0.00 in WeatherDisplay:10.37 W/m2 CLR
06:48 42.6 °F 40.4 °F 29.74 in North 1.2 mph   92% 0.00 in WeatherDisplay:10.37 W/m2 CLR
06:53 42.7 °F 40.5 °F 29.74 in Calm     92% 0.00 in WeatherDisplay:10.37 W/m2 CLR
06:58 42.7 °F 40.5 °F 29.75 in North 1.2 mph   92% 0.00 in WeatherDisplay:10.37 W/m2 CLR
07:03 42.7 °F 40.5 °F 29.77 in NNW 1.2 mph   92% 0.00 in WeatherDisplay:10.37 W/m2 CLR
07:08 42.7 °F 40.5 °F 29.78 in Calm     92% 0.00 in WeatherDisplay:10.37 W/m2 CLR
07:13 42.7 °F 40.5 °F 29.78 in North 3.5 mph 3.5 mph 92% 0.00 in WeatherDisplay:10.37 W/m2 CLR
07:18 42.5 °F 40.3 °F 29.78 in North 1.2 mph 1.2 mph 92% 0.00 in WeatherDisplay:10.37 W/m2 CLR
07:23 42.4 °F 40.2 °F 29.80 in Calm     92% 0.00 in WeatherDisplay:10.37 W/m2 CLR
07:28 42.5 °F 40.3 °F 29.78 in North 2.3 mph 2.3 mph 92% 0.00 in WeatherDisplay:10.37 W/m2 CLR
07:33 42.5 °F 40.3 °F 29.79 in Calm     92% 0.00 in WeatherDisplay:10.37 W/m2 CLR
07:38 42.5 °F 40.3 °F 29.79 in North 1.2 mph   92% 0.00 in WeatherDisplay:10.37 W/m2 CLR
07:43 42.5 °F 40.3 °F 29.80 in North 4.6 mph 4.6 mph 92% 0.00 in WeatherDisplay:10.37 W/m2 CLR
07:49 42.2 °F 40.0 °F 29.81 in North 2.3 mph 2.3 mph 92% 0.00 in WeatherDisplay:10.37 W/m2 CLR
07:54 42.1 °F 39.9 °F 29.84 in NNE 3.5 mph 3.5 mph 92% 0.00 in WeatherDisplay:10.37 W/m2 CLR
07:59 41.7 °F 39.5 °F 29.83 in North 6.9 mph 6.9 mph 92% 0.00 in WeatherDisplay:10.37 W/m2 CLR
08:04 41.5 °F 39.3 °F 29.84 in NNE 3.5 mph 3.5 mph 92% 0.00 in WeatherDisplay:10.37 W/m2 CLR
08:09 41.5 °F 39.3 °F 29.84 in NNW 1.2 mph 1.2 mph 92% 0.00 in WeatherDisplay:10.37 W/m2 CLR
08:14 41.5 °F 39.3 °F 29.84 in NNW 1.2 mph 1.2 mph 92% 0.00 in WeatherDisplay:10.37 W/m2 CLR
08:19 41.6 °F 39.7 °F 29.85 in NNE 1.2 mph 1.2 mph 93% 0.00 in WeatherDisplay:10.37 W/m2 CLR
08:24 41.7 °F 39.8 °F 29.85 in NNE 3.5 mph 3.5 mph 93% 0.00 in WeatherDisplay:10.37 W/m2 CLR
08:29 41.9 °F 40.0 °F 29.85 in NE 4.6 mph 4.6 mph 93% 0.00 in WeatherDisplay:10.37 W/m2 CLR
08:34 42.1 °F 40.2 °F 29.86 in NE 1.2 mph 1.2 mph 93% 0.00 in WeatherDisplay:10.37 W/m2 CLR
08:39 42.2 °F 40.3 °F 29.86 in ENE 3.5 mph 3.5 mph 93% 0.00 in WeatherDisplay:10.37 W/m2 CLR
08:44 41.9 °F 39.7 °F 29.86 in East 4.6 mph 4.6 mph 92% 0.00 in WeatherDisplay:10.37 W/m2 CLR
08:49 41.5 °F 39.3 °F 29.86 in East 3.5 mph 3.5 mph 92% 0.00 in WeatherDisplay:10.37 W/m2 CLR
08:54 41.8 °F 39.9 °F 29.86 in East 4.6 mph 4.6 mph 93% 0.00 in WeatherDisplay:10.37 W/m2 CLR
08:59 42.3 °F 40.4 °F 29.87 in Calm     93% 0.00 in WeatherDisplay:10.37 W/m2 CLR
09:04 43.1 °F 41.2 °F 29.86 in East 1.2 mph 1.2 mph 93% 0.00 in WeatherDisplay:10.37 W/m2 CLR
09:09 43.7 °F 41.8 °F 29.85 in East 2.3 mph 2.3 mph 93% 0.00 in WeatherDisplay:10.37 W/m2 CLR
09:14 44.7 °F 42.8 °F 29.85 in East 3.5 mph 3.5 mph 93% 0.00 in WeatherDisplay:10.37 W/m2 CLR
09:19 45.8 °F 43.9 °F 29.84 in East 3.5 mph 3.5 mph 93% 0.00 in WeatherDisplay:10.37 W/m2 CLR
09:24 46.6 °F 44.1 °F 29.84 in NW 5.8 mph 5.8 mph 91% 0.00 in WeatherDisplay:10.37 W/m2 CLR
09:29 49.2 °F 35.9 °F 29.84 in West 4.0 mph 4.0 mph 60% 0.00 in WeatherDisplay:10.37 W/m2 CLR
09:34 52.9 °F 31.0 °F 29.82 in NNE 11.0 mph 11.0 mph 43% 0.00 in WeatherDisplay:10.37 W/m2 CLR
09:39 55.8 °F 30.5 °F 29.82 in NW 18.4 mph 18.4 mph 38% 0.00 in WeatherDisplay:10.37 W/m2 CLR
09:44 57.7 °F 26.4 °F 29.79 in West 21.9 mph 21.9 mph 30% 0.00 in WeatherDisplay:10.37 W/m2 CLR
09:49 58.9 °F 30.6 °F 29.80 in WNW 13.0 mph 13.0 mph 34% 0.00 in WeatherDisplay:10.37 W/m2 CLR
09:54 59.0 °F 27.6 °F 29.80 in NW 15.0 mph 15.0 mph 30% 0.00 in WeatherDisplay:10.37 W/m2 CLR
09:59 57.8 °F 27.3 °F 29.80 in North 20.0 mph 20.0 mph 31% 0.00 in WeatherDisplay:10.37 W/m2 CLR
10:04 56.6 °F 27.0 °F 29.82 in NNW 17.3 mph 17.3 mph 32% 0.00 in WeatherDisplay:10.37 W/m2 CLR
10:09 55.9 °F 27.2 °F 29.84 in NNW 19.6 mph 19.6 mph 33% 0.00 in WeatherDisplay:10.37 W/m2 CLR
10:14 55.4 °F 26.7 °F 29.84 in NNW 16.1 mph 16.1 mph 33% 0.01 in WeatherDisplay:10.37 W/m2 RA
10:19 55.4 °F 26.7 °F 29.85 in WNW 19.6 mph 19.6 mph 33% 0.01 in WeatherDisplay:10.37 W/m2 RA
10:24 55.7 °F 26.3 °F 29.84 in North 18.4 mph 18.4 mph 32% 0.01 in WeatherDisplay:10.37 W/m2 CLR
10:25 55.7 °F 26.3 °F 29.84 in North 18.4 mph 18.4 mph 32% 0.01 in WeatherDisplay:10.37 W/m2 CLR
10:30 56.0 °F 26.5 °F 29.85 in NNW 15.0 mph 15.0 mph 32% 0.01 in WeatherDisplay:10.37 W/m2 CLR
10:35 56.2 °F 25.9 °F 29.85 in North 18.4 mph 18.4 mph 31% 0.01 in WeatherDisplay:10.37 W/m2 CLR
10:40 56.1 °F 25.1 °F 29.85 in WNW 19.6 mph 19.6 mph 30% 0.01 in WeatherDisplay:10.37 W/m2 CLR
10:45 55.9 °F 24.9 °F 29.85 in NNW 19.6 mph 19.6 mph 30% 0.01 in WeatherDisplay:10.37 W/m2 CLR
10:50 55.8 °F 25.6 °F 29.86 in NNW 17.3 mph 17.3 mph 31% 0.01 in WeatherDisplay:10.37 W/m2 CLR
10:55 55.7 °F 25.5 °F 29.86 in SSW 19.6 mph 19.6 mph 31% 0.01 in WeatherDisplay:10.37 W/m2 CLR
11:00 55.9 °F 25.7 °F 29.86 in NW 20.7 mph 20.7 mph 31% 0.01 in WeatherDisplay:10.37 W/m2 CLR
11:05 55.6 °F 26.2 °F 29.88 in NNW 19.6 mph 19.6 mph 32% 0.01 in WeatherDisplay:10.37 W/m2 CLR
11:10 55.6 °F 26.2 °F 29.88 in North 18.4 mph 18.4 mph 32% 0.01 in WeatherDisplay:10.37 W/m2 CLR
11:15 55.5 °F 26.1 °F 29.89 in North 15.0 mph 15.0 mph 32% 0.00 in WeatherDisplay:10.37 W/m2 CLR
11:20 55.4 °F 26.0 °F 29.88 in NNW 21.9 mph 21.9 mph 32% 0.00 in WeatherDisplay:10.37 W/m2 CLR
11:25 55.6 °F 26.2 °F 29.89 in North 24.2 mph 24.2 mph 32% 0.00 in WeatherDisplay:10.37 W/m2 CLR
11:30 55.4 °F 26.7 °F 29.89 in NNW 19.6 mph 19.6 mph 33% 0.00 in WeatherDisplay:10.37 W/m2 CLR
11:35 55.2 °F 26.6 °F 29.89 in NNW 29.9 mph 29.9 mph 33% 0.00 in WeatherDisplay:10.37 W/m2 CLR
11:40 55.0 °F 27.8 °F 29.90 in North 26.0 mph 26.0 mph 35% 0.00 in WeatherDisplay:10.37 W/m2 CLR
11:45 54.6 °F 28.2 °F 29.91 in North 26.5 mph 26.5 mph 36% 0.00 in WeatherDisplay:10.37 W/m2 CLR
11:50 54.3 °F 29.2 °F 29.92 in North 11.5 mph 12.8 mph 38% 0.00 in WeatherDisplay:10.37 W/m2
11:55 54.2 °F 29.1 °F 29.92 in NW 19.6 mph 19.6 mph 38% 0.00 in WeatherDisplay:10.37 W/m2 CLR
12:00 53.8 °F 27.4 °F 29.92 in North 31.1 mph 31.1 mph 36% 0.00 in WeatherDisplay:10.37 W/m2 CLR
12:05 53.5 °F 27.8 °F 29.93 in North 29.9 mph 29.9 mph 37% 0.00 in WeatherDisplay:10.37 W/m2
12:10 53.5 °F 28.5 °F 29.95 in NNE 23.0 mph 23.0 mph 38% 0.00 in WeatherDisplay:10.37 W/m2
12:15 53.1 °F 29.4 °F 29.94 in NW 19.6 mph 19.6 mph 40% 0.00 in WeatherDisplay:10.37 W/m2 CLR
12:20 53.0 °F 29.9 °F 29.94 in East 26.5 mph 26.5 mph 41% 0.00 in WeatherDisplay:10.37 W/m2 CLR
12:25 52.9 °F 29.8 °F 29.93 in NNE 15.0 mph 15.0 mph 41% 0.00 in WeatherDisplay:10.37 W/m2 CLR
12:30 53.1 °F 30.6 °F 29.94 in NNE 24.2 mph 24.2 mph 42% 0.00 in WeatherDisplay:10.37 W/m2 CLR
12:35 53.2 °F 29.5 °F 29.94 in NNW 23.0 mph 23.0 mph 40% 0.00 in WeatherDisplay:10.37 W/m2 CLR
12:40 53.2 °F 28.9 °F 29.94 in NNE 25.3 mph 25.3 mph 39% 0.00 in WeatherDisplay:10.37 W/m2 CLR
12:45 52.9 °F 28.6 °F 29.95 in ENE 19.6 mph 19.6 mph 39% 0.00 in WeatherDisplay:10.37 W/m2 CLR
12:50 52.9 °F 28.0 °F 29.95 in NNW 19.6 mph 19.6 mph 38% 0.00 in WeatherDisplay:10.37 W/m2 CLR
12:55 53.2 °F 29.5 °F 29.95 in ENE 24.2 mph 24.2 mph 40% 0.00 in WeatherDisplay:10.37 W/m2 CLR
13:00 53.4 °F 29.0 °F 29.96 in NE 23.0 mph 23.0 mph 39% 0.00 in WeatherDisplay:10.37 W/m2 CLR
13:05 53.2 °F 30.1 °F 29.98 in NNE 21.9 mph 21.9 mph 41% 0.00 in WeatherDisplay:10.37 W/m2 CLR
13:10 52.8 °F 30.3 °F 29.98 in North 20.0 mph 20.0 mph 42% 0.00 in WeatherDisplay:10.37 W/m2 CLR
13:15 52.6 °F 30.7 °F 29.98 in North 19.6 mph 19.6 mph 43% 0.00 in WeatherDisplay:10.37 W/m2 CLR
13:16 52.6 °F 30.7 °F 29.98 in North 19.6 mph 19.6 mph 43% 0.00 in WeatherDisplay:10.37 W/m2 CLR
13:21 52.8 °F 30.9 °F 29.99 in NNE 25.3 mph 25.3 mph 43% 0.00 in WeatherDisplay:10.37 W/m2 CLR
13:26 51.3 °F 29.0 °F 29.99 in NNE 26.5 mph 26.5 mph 42% 0.00 in WeatherDisplay:10.37 W/m2
13:31 50.2 °F 28.5 °F 30.00 in NNW 24.2 mph 24.2 mph 43% 0.00 in WeatherDisplay:10.37 W/m2
13:36 49.7 °F 28.1 °F 30.00 in North 20.7 mph 20.7 mph 43% 0.00 in WeatherDisplay:10.37 W/m2 CLR
13:41 49.6 °F 27.4 °F 29.99 in WNW 19.6 mph 19.6 mph 42% 0.00 in WeatherDisplay:10.37 W/m2 CLR
13:46 49.5 °F 24.9 °F 30.00 in SW 17.3 mph 17.3 mph 38% 0.00 in WeatherDisplay:10.37 W/m2 CLR
13:51 49.5 °F 25.5 °F 30.00 in North 20.7 mph 20.7 mph 39% 0.00 in WeatherDisplay:10.37 W/m2 CLR
13:56 49.6 °F 26.2 °F 30.01 in NNE 18.4 mph 18.4 mph 40% 0.00 in WeatherDisplay:10.37 W/m2 CLR
14:01 49.8 °F 25.8 °F 30.01 in North 24.2 mph 24.2 mph 39% 0.00 in WeatherDisplay:10.37 W/m2 CLR
14:06 50.4 °F 25.1 °F 30.02 in ENE 12.7 mph 12.7 mph 37% 0.00 in WeatherDisplay:10.37 W/m2 CLR
14:07 50.5 °F 25.2 °F 30.03 in NW 16.1 mph 16.1 mph 37% 0.00 in WeatherDisplay:10.37 W/m2 CLR
14:12 50.6 °F 24.6 °F 30.03 in West 25.0 mph 25.0 mph 36% 0.00 in WeatherDisplay:10.37 W/m2 CLR
14:17 50.5 °F 24.5 °F 30.04 in NW 20.7 mph 20.7 mph 36% 0.00 in WeatherDisplay:10.37 W/m2 CLR
14:22 50.2 °F 22.9 °F 30.04 in NW 23.0 mph 23.0 mph 34% 0.01 in WeatherDisplay:10.37 W/m2 RA
14:27 49.8 °F 23.2 °F 30.04 in North 17.3 mph 17.3 mph 35% 0.01 in WeatherDisplay:10.37 W/m2 RA
14:32 49.3 °F 22.8 °F 30.06 in North 18.4 mph 18.4 mph 35% 0.01 in WeatherDisplay:10.37 W/m2
14:37 48.8 °F 20.9 °F 30.06 in East 20.7 mph 20.7 mph 33% 0.01 in WeatherDisplay:10.37 W/m2 CLR
14:42 48.9 °F 20.3 °F 30.07 in WNW 23.0 mph 23.0 mph 32% 0.01 in WeatherDisplay:10.37 W/m2 CLR
14:47 49.2 °F 21.3 °F 30.07 in North 22.0 mph 22.0 mph 33% 0.01 in WeatherDisplay:10.37 W/m2 CLR
14:52 49.6 °F 20.9 °F 30.05 in SE 14.0 mph 14.0 mph 32% 0.01 in WeatherDisplay:10.37 W/m2 CLR
14:57 49.8 °F 19.6 °F 30.04 in NE 29.9 mph 29.9 mph 30% 0.01 in WeatherDisplay:10.37 W/m2 CLR
15:02 49.6 °F 18.6 °F 30.04 in NNW 23.0 mph 23.0 mph 29% 0.01 in WeatherDisplay:10.37 W/m2 CLR
15:07 49.5 °F 19.3 °F 30.02 in NNW 28.0 mph 28.0 mph 30% 0.01 in WeatherDisplay:10.37 W/m2 CLR
15:12 49.7 °F 19.5 °F 30.03 in NE 28.8 mph 28.8 mph 30% 0.01 in WeatherDisplay:10.37 W/m2 CLR
15:17 50.5 °F 20.2 °F 30.07 in ENE 17.3 mph 17.3 mph 30% 0.01 in WeatherDisplay:10.37 W/m2
15:22 51.1 °F 19.9 °F 30.08 in WNW 18.4 mph 18.4 mph 29% 0.00 in WeatherDisplay:10.37 W/m2
15:27 51.3 °F 19.3 °F 30.10 in West 26.0 mph 26.0 mph 28% 0.00 in WeatherDisplay:10.37 W/m2 CLR
15:32 51.5 °F 18.6 °F 30.11 in SW 19.6 mph 19.6 mph 27% 0.00 in WeatherDisplay:10.37 W/m2 CLR
15:38 51.7 °F 18.7 °F 30.11 in WSW 11.5 mph 11.5 mph 27% 0.00 in WeatherDisplay:10.37 W/m2 CLR
15:43 52.0 °F 18.1 °F 30.11 in NE 10.4 mph 10.4 mph 26% 0.00 in WeatherDisplay:10.37 W/m2 CLR
15:48 52.2 °F 17.4 °F 30.11 in SW 12.7 mph 12.7 mph 25% 0.00 in WeatherDisplay:10.37 W/m2 CLR
15:53 52.3 °F 17.5 °F 30.12 in ENE 24.2 mph 24.2 mph 25% 0.00 in WeatherDisplay:10.37 W/m2 CLR
15:58 52.2 °F 18.3 °F 30.13 in NW 9.2 mph 9.2 mph 26% 0.00 in WeatherDisplay:10.37 W/m2 CLR
16:03 52.1 °F 17.3 °F 30.13 in East 11.5 mph 11.5 mph 25% 0.00 in WeatherDisplay:10.37 W/m2 CLR
16:08 52.1 °F 18.2 °F 30.13 in South 10.4 mph 10.4 mph 26% 0.00 in WeatherDisplay:10.37 W/m2 CLR
16:13 52.2 °F 16.4 °F 30.13 in West 11.5 mph 11.5 mph 24% 0.00 in WeatherDisplay:10.37 W/m2 CLR
16:18 52.1 °F 16.4 °F 30.14 in WNW 10.4 mph 10.4 mph 24% 0.00 in WeatherDisplay:10.37 W/m2 CLR
16:23 52.1 °F 17.3 °F 30.14 in NNW 9.2 mph 9.2 mph 25% 0.00 in WeatherDisplay:10.37 W/m2 CLR
16:28 52.1 °F 17.3 °F 30.15 in North 11.5 mph 11.5 mph 25% 0.00 in WeatherDisplay:10.37 W/m2 CLR
16:33 52.0 °F 14.3 °F 30.15 in NNE 19.6 mph 19.6 mph 22% 0.00 in WeatherDisplay:10.37 W/m2 CLR
16:38 51.8 °F 16.1 °F 30.15 in West 8.1 mph 8.1 mph 24% 0.00 in WeatherDisplay:10.37 W/m2 CLR
16:43 51.8 °F 16.1 °F 30.16 in NNW 9.0 mph 9.0 mph 24% 0.00 in WeatherDisplay:10.37 W/m2 CLR
16:48 51.8 °F 17.0 °F 30.16 in North 15.0 mph 15.0 mph 25% 0.00 in WeatherDisplay:10.37 W/m2 CLR
16:53 51.7 °F 15.0 °F 30.17 in SSW 10.4 mph 10.4 mph 23% 0.00 in WeatherDisplay:10.37 W/m2 CLR
16:58 51.6 °F 15.9 °F 30.17 in NW 10.4 mph 10.4 mph 24% 0.00 in WeatherDisplay:10.37 W/m2 CLR
17:03 51.5 °F 15.8 °F 30.16 in NE 9.2 mph 9.2 mph 24% 0.00 in WeatherDisplay:10.37 W/m2 CLR
17:08 51.4 °F 16.7 °F 30.16 in NNE 10.4 mph 10.4 mph 25% 0.00 in WeatherDisplay:10.37 W/m2 CLR
17:13 51.3 °F 16.6 °F 30.16 in NNW 4.0 mph 4.0 mph 25% 0.00 in WeatherDisplay:10.37 W/m2 CLR
17:18 51.1 °F 17.4 °F 30.17 in NNW 15.0 mph 15.0 mph 26% 0.00 in WeatherDisplay:10.37 W/m2 CLR
17:23 51.0 °F 17.3 °F 30.17 in NNW 15.0 mph 15.0 mph 26% 0.00 in WeatherDisplay:10.37 W/m2 CLR
17:28 50.9 °F 18.1 °F 30.17 in WNW 12.7 mph 12.7 mph 27% 0.00 in WeatherDisplay:10.37 W/m2 CLR
17:33 50.7 °F 17.0 °F 30.17 in North 5.8 mph 5.8 mph 26% 0.00 in WeatherDisplay:10.37 W/m2 CLR
17:38 50.5 °F 15.9 °F 30.17 in North 13.8 mph 13.8 mph 25% 0.00 in WeatherDisplay:10.37 W/m2 CLR
17:43 50.4 °F 16.8 °F 30.18 in North 6.9 mph 6.9 mph 26% 0.00 in WeatherDisplay:10.37 W/m2 CLR
17:48 50.3 °F 17.5 °F 30.19 in North 4.0 mph 4.0 mph 27% 0.00 in WeatherDisplay:10.37 W/m2 CLR
17:53 50.1 °F 17.4 °F 30.19 in NW 4.6 mph 4.6 mph 27% 0.00 in WeatherDisplay:10.37 W/m2 CLR
17:58 50.0 °F 16.4 °F 30.19 in WNW 11.5 mph 11.5 mph 26% 0.00 in WeatherDisplay:10.37 W/m2 CLR
18:03 49.9 °F 17.2 °F 30.19 in WNW 5.8 mph 5.8 mph 27% 0.00 in WeatherDisplay:10.37 W/m2 CLR
18:08 49.7 °F 17.9 °F 30.19 in NNE 5.8 mph 5.8 mph 28% 0.00 in WeatherDisplay:10.37 W/m2 CLR
18:13 49.5 °F 17.7 °F 30.19 in NNW 5.8 mph 5.8 mph 28% 0.00 in WeatherDisplay:10.37 W/m2 CLR
18:18 49.2 °F 18.3 °F 30.19 in NNW 1.2 mph 1.2 mph 29% 0.00 in WeatherDisplay:10.37 W/m2 CLR
18:23 48.9 °F 19.5 °F 30.19 in NW 3.5 mph 3.5 mph 31% 0.00 in WeatherDisplay:10.37 W/m2 CLR
18:28 48.5 °F 19.9 °F 30.19 in NNW 5.8 mph 5.8 mph 32% 0.00 in WeatherDisplay:10.37 W/m2 CLR
18:33 48.2 °F 18.2 °F 30.20 in NNW 3.5 mph 3.5 mph 30% 0.00 in WeatherDisplay:10.37 W/m2 CLR
18:38 48.1 °F 18.1 °F 30.20 in NW 4.6 mph 4.6 mph 30% 0.00 in WeatherDisplay:10.37 W/m2 CLR
18:43 48.1 °F 16.5 °F 30.20 in NNW 4.0 mph 4.0 mph 28% 0.00 in WeatherDisplay:10.37 W/m2 CLR
18:48 48.5 °F 15.1 °F 30.20 in West 13.8 mph 13.8 mph 26% 0.00 in WeatherDisplay:10.37 W/m2 CLR
18:53 48.9 °F 15.5 °F 30.20 in NNW 7.0 mph 7.0 mph 26% 0.00 in WeatherDisplay:10.37 W/m2 CLR
18:58 49.0 °F 15.6 °F 30.19 in North 8.1 mph 8.1 mph 26% 0.00 in WeatherDisplay:10.37 W/m2 CLR
19:03 49.1 °F 15.6 °F 30.21 in NNW 9.2 mph 9.2 mph 26% 0.00 in WeatherDisplay:10.37 W/m2 CLR
19:08 49.0 °F 15.6 °F 30.21 in NW 5.8 mph 5.8 mph 26% 0.00 in WeatherDisplay:10.37 W/m2 CLR
19:13 49.1 °F 15.6 °F 30.21 in NW 6.9 mph 6.9 mph 26% 0.00 in WeatherDisplay:10.37 W/m2 CLR
19:18 49.0 °F 15.6 °F 30.21 in NNW 3.5 mph 3.5 mph 26% 0.00 in WeatherDisplay:10.37 W/m2 CLR
19:23 48.7 °F 15.3 °F 30.22 in NW 3.5 mph 3.5 mph 26% 0.00 in WeatherDisplay:10.37 W/m2 CLR
19:28 48.7 °F 15.3 °F 30.22 in NNE 2.3 mph 2.3 mph 26% 0.00 in WeatherDisplay:10.37 W/m2 CLR
19:33 48.7 °F 17.0 °F 30.23 in NW 1.2 mph 1.2 mph 28% 0.00 in WeatherDisplay:10.37 W/m2 CLR
19:38 47.8 °F 17.8 °F 30.23 in ENE 2.3 mph 2.3 mph 30% 0.00 in WeatherDisplay:10.37 W/m2 CLR
19:43 46.3 °F 19.4 °F 30.24 in ENE 1.2 mph   34% 0.00 in WeatherDisplay:10.37 W/m2 CLR
19:48 45.1 °F 19.0 °F 30.25 in Calm   0.1 mph 35% 0.00 in WeatherDisplay:10.37 W/m2 CLR
19:53 44.3 °F 19.0 °F 30.25 in Calm     36% 0.00 in WeatherDisplay:10.37 W/m2 CLR
19:58 43.6 °F 19.0 °F 30.25 in ENE 2.3 mph   37% 0.00 in WeatherDisplay:10.37 W/m2 CLR
20:03 42.8 °F 19.5 °F 30.25 in SSE 3.5 mph 3.5 mph 39% 0.00 in WeatherDisplay:10.37 W/m2 CLR
20:08 42.4 °F 19.8 °F 30.27 in SSE 1.2 mph   40% 0.00 in WeatherDisplay:10.37 W/m2 CLR
20:13 41.9 °F 19.9 °F 30.27 in Calm     41% 0.00 in WeatherDisplay:10.37 W/m2 CLR
20:18 41.5 °F 20.1 °F 30.27 in SSE 1.2 mph   42% 0.00 in WeatherDisplay:10.37 W/m2 CLR
20:23 41.2 °F 19.8 °F 30.27 in Calm     42% 0.00 in WeatherDisplay:10.37 W/m2 CLR
20:28 40.9 °F 20.1 °F 30.27 in Calm     43% 0.00 in WeatherDisplay:10.37 W/m2 CLR
20:33 40.4 °F 20.7 °F 30.27 in Calm     45% 0.00 in WeatherDisplay:10.37 W/m2 CLR
20:38 40.0 °F 20.9 °F 30.28 in Calm     46% 0.00 in WeatherDisplay:10.37 W/m2 CLR
20:43 39.4 °F 21.3 °F 30.28 in SSE 2.3 mph 2.3 mph 48% 0.00 in WeatherDisplay:10.37 W/m2 CLR
20:48 39.0 °F 19.9 °F 30.27 in Calm     46% 0.00 in WeatherDisplay:10.37 W/m2 CLR
20:53 38.7 °F 21.2 °F 30.27 in SSE 1.2 mph   49% 0.00 in WeatherDisplay:10.37 W/m2 CLR
20:58 38.4 °F 20.9 °F 30.26 in SSW 3.5 mph 3.5 mph 49% 0.00 in WeatherDisplay:10.37 W/m2 CLR
21:03 38.4 °F 21.4 °F 30.21 in Calm     50% 0.00 in WeatherDisplay:10.37 W/m2 CLR
21:08 38.3 °F 21.3 °F 30.22 in Calm     50% 0.00 in WeatherDisplay:10.37 W/m2 CLR
21:13 38.0 °F 21.5 °F 30.22 in Calm     51% 0.00 in WeatherDisplay:10.37 W/m2 CLR
21:18 37.7 °F 20.7 °F 30.22 in SSW 1.2 mph 1.2 mph 50% 0.00 in WeatherDisplay:10.37 W/m2 CLR
21:23 37.4 °F 21.8 °F 30.22 in SSW 1.2 mph 1.2 mph 53% 0.00 in WeatherDisplay:10.37 W/m2 CLR
21:28 36.9 °F 20.9 °F 30.21 in SSW 1.2 mph 1.2 mph 52% 0.00 in WeatherDisplay:10.37 W/m2 CLR
21:33 36.9 °F 20.9 °F 30.22 in SSW 1.2 mph 1.2 mph 52% 0.00 in WeatherDisplay:10.37 W/m2 CLR
21:38 36.8 °F 21.3 °F 30.22 in Calm     53% 0.00 in WeatherDisplay:10.37 W/m2 CLR
21:43 36.6 °F 21.1 °F 30.22 in Calm     53% 0.00 in WeatherDisplay:10.37 W/m2 CLR
21:48 36.6 °F 21.5 °F 30.22 in SSW 2.3 mph 2.3 mph 54% 0.00 in WeatherDisplay:10.37 W/m2 CLR
21:53 36.5 °F 21.0 °F 30.22 in SW 3.5 mph 3.5 mph 53% 0.00 in WeatherDisplay:10.37 W/m2 CLR
21:58 36.3 °F 21.7 °F 30.23 in SW 1.2 mph 1.2 mph 55% 0.00 in WeatherDisplay:10.37 W/m2 CLR
21:59 36.2 °F 21.6 °F 30.23 in SW 1.2 mph 1.2 mph 55% 0.00 in WeatherDisplay:10.37 W/m2 CLR
22:04 36.0 °F 21.4 °F 30.23 in SW 3.5 mph 3.5 mph 55% 0.00 in WeatherDisplay:10.37 W/m2 CLR
22:09 36.0 °F 21.4 °F 30.24 in SW 2.3 mph 2.3 mph 55% 0.00 in WeatherDisplay:10.37 W/m2 CLR
22:14 36.0 °F 21.4 °F 30.24 in SW 2.3 mph 2.3 mph 55% 0.00 in WeatherDisplay:10.37 W/m2 CLR
22:19 36.2 °F 21.6 °F 30.24 in South 5.8 mph 5.8 mph 55% 0.00 in WeatherDisplay:10.37 W/m2 CLR
22:24 36.1 °F 21.5 °F 30.24 in SSW 5.8 mph 5.8 mph 55% 0.00 in WeatherDisplay:10.37 W/m2 CLR
22:29 36.1 °F 21.5 °F 30.24 in SSE 3.5 mph 3.5 mph 55% 0.00 in WeatherDisplay:10.37 W/m2 CLR
22:34 36.1 °F 21.9 °F 30.24 in SSE 2.3 mph 2.3 mph 56% 0.00 in WeatherDisplay:10.37 W/m2 CLR
22:39 36.1 °F 21.5 °F 30.24 in SSE 2.3 mph 2.3 mph 55% 0.00 in WeatherDisplay:10.37 W/m2 CLR
22:44 36.0 °F 21.4 °F 30.25 in SSE 1.2 mph 1.2 mph 55% 0.00 in WeatherDisplay:10.37 W/m2 CLR
22:49 36.1 °F 21.9 °F 30.25 in SSE 2.3 mph 2.3 mph 56% 0.00 in WeatherDisplay:10.37 W/m2 CLR
22:54 35.9 °F 21.7 °F 30.25 in SSW 2.0 mph 2.0 mph 56% 0.00 in WeatherDisplay:10.37 W/m2 CLR
22:59 35.9 °F 21.7 °F 30.24 in Calm     56% 0.00 in WeatherDisplay:10.37 W/m2 CLR
23:04 35.9 °F 21.7 °F 30.26 in SSW 1.2 mph   56% 0.00 in WeatherDisplay:10.37 W/m2 CLR
23:09 35.8 °F 21.6 °F 30.25 in SSW 1.2 mph   56% 0.00 in WeatherDisplay:10.37 W/m2 CLR
23:14 35.6 °F 21.9 °F 30.25 in Calm     57% 0.00 in WeatherDisplay:10.37 W/m2 CLR
23:19 35.3 °F 21.6 °F 30.27 in SSW 1.2 mph   57% 0.00 in WeatherDisplay:10.37 W/m2 CLR
23:24 35.1 °F 21.8 °F 30.27 in Calm     58% 0.00 in WeatherDisplay:10.37 W/m2 CLR
23:29 34.7 °F 22.2 °F 30.27 in Calm     60% 0.00 in WeatherDisplay:10.37 W/m2 CLR
23:34 34.4 °F 21.9 °F 30.27 in Calm   0.1 mph 60% 0.00 in WeatherDisplay:10.37 W/m2 CLR
23:39 34.1 °F 22.4 °F 30.26 in SSW 2.3 mph   62% 0.00 in WeatherDisplay:10.37 W/m2 CLR
23:44 33.7 °F 22.4 °F 30.26 in SSW 1.2 mph 1.2 mph 63% 0.00 in WeatherDisplay:10.37 W/m2 CLR
23:49 33.2 °F 22.3 °F 30.27 in SSW 3.5 mph 3.5 mph 64% 0.00 in WeatherDisplay:10.37 W/m2 CLR
23:54 32.6 °F 22.1 °F 30.27 in SSW 1.2 mph 1.2 mph 65% 0.00 in WeatherDisplay:10.37 W/m2 CLR
23:59 32.4 °F 22.3 °F 30.27 in SSW 2.3 mph   66% 0.00 in WeatherDisplay:10.37 W/m2 CLR
Windsor Co Weather
Compliments of Weather Underground - 3 mb